sensor_id;sensor_type;location;lat;lon;timestamp;pressure;altitude;pressure_sealevel;temperature;humidity
77897;BME280;67092;64.282;21.056;2023-02-25T00:00:03;99686.95;;;20.43;22.13
77897;BME280;67092;64.282;21.056;2023-02-25T00:02:28;99691.15;;;20.65;22.01
77897;BME280;67092;64.282;21.056;2023-02-25T00:04:53;99693.41;;;20.44;22.18
77897;BME280;67092;64.282;21.056;2023-02-25T00:07:18;99697.25;;;21.19;21.59
77897;BME280;67092;64.282;21.056;2023-02-25T00:09:44;99697.90;;;20.50;21.76
77897;BME280;67092;64.282;21.056;2023-02-25T00:12:09;99699.97;;;20.89;21.73
77897;BME280;67092;64.282;21.056;2023-02-25T00:14:35;99699.07;;;20.37;22.06
77897;BME280;67092;64.282;21.056;2023-02-25T00:17:00;99701.14;;;20.99;21.59
77897;BME280;67092;64.282;21.056;2023-02-25T00:19:26;99707.73;;;20.76;21.79
77897;BME280;67092;64.282;21.056;2023-02-25T00:21:51;99705.10;;;21.06;21.39
77897;BME280;67092;64.282;21.056;2023-02-25T00:24:17;99710.35;;;20.79;21.75
77897;BME280;67092;64.282;21.056;2023-02-25T00:26:43;99711.33;;;20.63;21.54
77897;BME280;67092;64.282;21.056;2023-02-25T00:29:08;99714.26;;;21.06;21.32
77897;BME280;67092;64.282;21.056;2023-02-25T00:31:34;99713.10;;;20.93;21.60
77897;BME280;67092;64.282;21.056;2023-02-25T00:34:00;99715.21;;;20.30;21.66
77897;BME280;67092;64.282;21.056;2023-02-25T00:36:26;99715.90;;;20.81;21.60
77897;BME280;67092;64.282;21.056;2023-02-25T00:38:53;99717.16;;;20.63;21.73
77897;BME280;67092;64.282;21.056;2023-02-25T00:41:20;99720.22;;;20.73;21.54
77897;BME280;67092;64.282;21.056;2023-02-25T00:43:43;99725.15;;;20.42;21.52
77897;BME280;67092;64.282;21.056;2023-02-25T00:46:08;99720.62;;;20.22;21.90
77897;BME280;67092;64.282;21.056;2023-02-25T00:48:33;99718.64;;;20.49;21.76
77897;BME280;67092;64.282;21.056;2023-02-25T00:51:05;99722.65;;;21.04;21.51
77897;BME280;67092;64.282;21.056;2023-02-25T00:53:25;99724.06;;;20.69;21.74
77897;BME280;67092;64.282;21.056;2023-02-25T00:55:59;99727.87;;;20.95;21.45
77897;BME280;67092;64.282;21.056;2023-02-25T00:58:16;99728.01;;;20.20;21.93
77897;BME280;67092;64.282;21.056;2023-02-25T01:00:42;99735.13;;;20.19;22.07
77897;BME280;67092;64.282;21.056;2023-02-25T01:03:07;99736.34;;;20.47;21.93
77897;BME280;67092;64.282;21.056;2023-02-25T01:05:33;99739.85;;;18.66;21.91
77897;BME280;67092;64.282;21.056;2023-02-25T01:07:59;99744.05;;;20.42;21.53
77897;BME280;67092;64.282;21.056;2023-02-25T01:10:24;99745.52;;;20.27;21.66
77897;BME280;67092;64.282;21.056;2023-02-25T01:12:50;99745.96;;;20.26;21.86
77897;BME280;67092;64.282;21.056;2023-02-25T01:15:16;99747.11;;;20.56;21.69
77897;BME280;67092;64.282;21.056;2023-02-25T01:17:41;99746.93;;;21.09;21.48
77897;BME280;67092;64.282;21.056;2023-02-25T01:20:08;99749.39;;;20.39;21.75
77897;BME280;67092;64.282;21.056;2023-02-25T01:22:32;99747.38;;;20.68;21.61
77897;BME280;67092;64.282;21.056;2023-02-25T01:24:58;99747.14;;;20.87;21.66
77897;BME280;67092;64.282;21.056;2023-02-25T01:27:24;99750.86;;;20.26;21.97
77897;BME280;67092;64.282;21.056;2023-02-25T01:29:49;99753.05;;;20.82;21.57
77897;BME280;67092;64.282;21.056;2023-02-25T01:32:15;99754.65;;;20.28;21.66
77897;BME280;67092;64.282;21.056;2023-02-25T01:34:41;99755.30;;;20.76;21.63
77897;BME280;67092;64.282;21.056;2023-02-25T01:37:06;99762.82;;;21.10;21.62
77897;BME280;67092;64.282;21.056;2023-02-25T01:39:32;99762.15;;;20.23;21.95
77897;BME280;67092;64.282;21.056;2023-02-25T01:42:00;99762.34;;;21.07;21.55
77897;BME280;67092;64.282;21.056;2023-02-25T01:44:28;99769.39;;;20.71;21.85
77897;BME280;67092;64.282;21.056;2023-02-25T01:46:50;99770.37;;;20.76;21.73
77897;BME280;67092;64.282;21.056;2023-02-25T01:49:22;99774.63;;;20.38;22.00
77897;BME280;67092;64.282;21.056;2023-02-25T01:51:41;99775.72;;;20.34;21.88
77897;BME280;67092;64.282;21.056;2023-02-25T01:54:08;99778.20;;;20.51;21.94
77897;BME280;67092;64.282;21.056;2023-02-25T01:56:32;99778.99;;;21.19;21.58
77897;BME280;67092;64.282;21.056;2023-02-25T01:58:58;99785.82;;;20.17;21.85
77897;BME280;67092;64.282;21.056;2023-02-25T02:01:25;99786.31;;;20.32;22.10
77897;BME280;67092;64.282;21.056;2023-02-25T02:03:49;99782.67;;;20.79;21.58
77897;BME280;67092;64.282;21.056;2023-02-25T02:06:17;99781.61;;;21.07;21.61
77897;BME280;67092;64.282;21.056;2023-02-25T02:08:40;99779.93;;;20.51;21.66
77897;BME280;67092;64.282;21.056;2023-02-25T02:11:05;99784.60;;;21.11;21.33
77897;BME280;67092;64.282;21.056;2023-02-25T02:13:34;99789.97;;;20.45;21.79
77897;BME280;67092;64.282;21.056;2023-02-25T02:16:10;99787.77;;;21.12;21.36
77897;BME280;67092;64.282;21.056;2023-02-25T02:18:24;99791.43;;;20.77;21.45
77897;BME280;67092;64.282;21.056;2023-02-25T02:20:58;99796.46;;;20.98;21.36
77897;BME280;67092;64.282;21.056;2023-02-25T02:23:31;99799.69;;;20.96;21.42
77897;BME280;67092;64.282;21.056;2023-02-25T02:25:47;99799.42;;;20.59;21.65
77897;BME280;67092;64.282;21.056;2023-02-25T02:30:38;99812.65;;;20.72;21.55
77897;BME280;67092;64.282;21.056;2023-02-25T02:33:01;99813.12;;;20.76;21.49
77897;BME280;67092;64.282;21.056;2023-02-25T02:35:26;99814.01;;;21.03;21.15
77897;BME280;67092;64.282;21.056;2023-02-25T02:37:56;99816.45;;;20.64;21.32
77897;BME280;67092;64.282;21.056;2023-02-25T02:40:21;99819.91;;;20.60;21.43
77897;BME280;67092;64.282;21.056;2023-02-25T02:42:44;99815.79;;;20.77;21.34
77897;BME280;67092;64.282;21.056;2023-02-25T02:45:10;99819.38;;;20.84;21.37
77897;BME280;67092;64.282;21.056;2023-02-25T02:47:32;99822.36;;;20.97;21.21
77897;BME280;67092;64.282;21.056;2023-02-25T02:49:59;99827.87;;;20.71;21.36
77897;BME280;67092;64.282;21.056;2023-02-25T02:52:24;99828.50;;;20.65;21.51
77897;BME280;67092;64.282;21.056;2023-02-25T02:54:52;99827.88;;;21.16;21.01
77897;BME280;67092;64.282;21.056;2023-02-25T02:57:13;99835.14;;;20.70;21.31
77897;BME280;67092;64.282;21.056;2023-02-25T02:59:42;99843.41;;;20.42;21.49
77897;BME280;67092;64.282;21.056;2023-02-25T03:02:07;99849.00;;;20.72;21.40
77897;BME280;67092;64.282;21.056;2023-02-25T03:04:32;99849.54;;;20.84;21.31
77897;BME280;67092;64.282;21.056;2023-02-25T03:06:59;99852.28;;;20.42;21.47
77897;BME280;67092;64.282;21.056;2023-02-25T03:09:24;99852.74;;;20.26;21.58
77897;BME280;67092;64.282;21.056;2023-02-25T03:11:47;99853.91;;;20.97;20.94
77897;BME280;67092;64.282;21.056;2023-02-25T03:14:13;99853.39;;;20.93;20.95
77897;BME280;67092;64.282;21.056;2023-02-25T03:16:40;99854.88;;;20.38;21.32
77897;BME280;67092;64.282;21.056;2023-02-25T03:19:07;99855.44;;;20.73;21.14
77897;BME280;67092;64.282;21.056;2023-02-25T03:21:36;99858.31;;;20.29;21.55
77897;BME280;67092;64.282;21.056;2023-02-25T03:23:55;99861.19;;;20.16;21.41
77897;BME280;67092;64.282;21.056;2023-02-25T03:26:23;99867.07;;;20.43;21.44
77897;BME280;67092;64.282;21.056;2023-02-25T03:28:46;99870.09;;;20.11;21.45
77897;BME280;67092;64.282;21.056;2023-02-25T03:31:17;99870.35;;;20.85;21.03
77897;BME280;67092;64.282;21.056;2023-02-25T03:33:41;99869.90;;;20.88;21.03
77897;BME280;67092;64.282;21.056;2023-02-25T03:36:06;99874.40;;;20.48;21.01
77897;BME280;67092;64.282;21.056;2023-02-25T03:38:30;99876.39;;;19.96;21.55
77897;BME280;67092;64.282;21.056;2023-02-25T03:40:56;99879.33;;;20.97;20.80
77897;BME280;67092;64.282;21.056;2023-02-25T03:43:23;99882.93;;;20.79;20.90
77897;BME280;67092;64.282;21.056;2023-02-25T03:45:46;99883.83;;;20.41;21.17
77897;BME280;67092;64.282;21.056;2023-02-25T03:48:14;99888.21;;;20.57;21.04
77897;BME280;67092;64.282;21.056;2023-02-25T03:50:41;99892.06;;;20.42;21.35
77897;BME280;67092;64.282;21.056;2023-02-25T03:53:03;99895.39;;;20.47;21.26
77897;BME280;67092;64.282;21.056;2023-02-25T03:55:28;99896.15;;;20.33;21.30
77897;BME280;67092;64.282;21.056;2023-02-25T03:57:54;99901.81;;;20.99;20.83
77897;BME280;67092;64.282;21.056;2023-02-25T04:00:21;99905.30;;;20.90;20.71
77897;BME280;67092;64.282;21.056;2023-02-25T04:02:46;99906.89;;;21.17;20.70
77897;BME280;67092;64.282;21.056;2023-02-25T04:05:11;99909.09;;;21.17;20.73
77897;BME280;67092;64.282;21.056;2023-02-25T04:07:37;99909.37;;;21.09;20.76
77897;BME280;67092;64.282;21.056;2023-02-25T04:10:03;99914.22;;;20.41;21.24
77897;BME280;67092;64.282;21.056;2023-02-25T04:12:27;99915.03;;;20.58;21.15
77897;BME280;67092;64.282;21.056;2023-02-25T04:14:53;99922.31;;;20.55;21.04
77897;BME280;67092;64.282;21.056;2023-02-25T04:17:19;99918.40;;;20.29;21.07
77897;BME280;67092;64.282;21.056;2023-02-25T04:19:44;99922.79;;;19.92;21.16
77897;BME280;67092;64.282;21.056;2023-02-25T04:22:10;99923.41;;;20.81;20.83
77897;BME280;67092;64.282;21.056;2023-02-25T04:24:36;99924.88;;;21.19;20.53
77897;BME280;67092;64.282;21.056;2023-02-25T04:27:02;99926.63;;;20.58;20.93
77897;BME280;67092;64.282;21.056;2023-02-25T04:29:27;99926.30;;;20.81;20.71
77897;BME280;67092;64.282;21.056;2023-02-25T04:31:52;99932.98;;;20.84;20.87
77897;BME280;67092;64.282;21.056;2023-02-25T04:34:18;99936.65;;;20.39;21.02
77897;BME280;67092;64.282;21.056;2023-02-25T04:36:45;99940.07;;;20.83;20.66
77897;BME280;67092;64.282;21.056;2023-02-25T04:39:10;99939.16;;;20.76;20.78
77897;BME280;67092;64.282;21.056;2023-02-25T04:41:35;99936.78;;;20.69;20.87
77897;BME280;67092;64.282;21.056;2023-02-25T04:44:01;99940.05;;;20.73;20.89
77897;BME280;67092;64.282;21.056;2023-02-25T04:46:26;99941.72;;;20.53;21.00
77897;BME280;67092;64.282;21.056;2023-02-25T04:48:52;99944.58;;;20.20;21.10
77897;BME280;67092;64.282;21.056;2023-02-25T04:51:18;99940.26;;;20.26;21.02
77897;BME280;67092;64.282;21.056;2023-02-25T04:53:43;99942.80;;;20.69;20.85
77897;BME280;67092;64.282;21.056;2023-02-25T04:56:10;99948.06;;;20.44;20.77
77897;BME280;67092;64.282;21.056;2023-02-25T04:58:35;99954.77;;;20.65;20.80
77897;BME280;67092;64.282;21.056;2023-02-25T05:01:02;99958.44;;;20.56;20.94
77897;BME280;67092;64.282;21.056;2023-02-25T05:03:28;99963.77;;;20.40;20.90
77897;BME280;67092;64.282;21.056;2023-02-25T05:05:51;99967.17;;;20.76;20.82
77897;BME280;67092;64.282;21.056;2023-02-25T05:08:17;99967.27;;;20.57;20.92
77897;BME280;67092;64.282;21.056;2023-02-25T05:10:43;99965.27;;;21.32;20.26
77897;BME280;67092;64.282;21.056;2023-02-25T05:13:08;99972.46;;;20.40;20.98
77897;BME280;67092;64.282;21.056;2023-02-25T05:15:34;99969.42;;;20.24;20.89
77897;BME280;67092;64.282;21.056;2023-02-25T05:18:00;99969.31;;;21.30;20.39
77897;BME280;67092;64.282;21.056;2023-02-25T05:20:25;99971.51;;;21.08;20.32
77897;BME280;67092;64.282;21.056;2023-02-25T05:22:51;99974.99;;;20.58;20.58
77897;BME280;67092;64.282;21.056;2023-02-25T05:25:17;99987.18;;;20.75;20.64
77897;BME280;67092;64.282;21.056;2023-02-25T05:27:43;99987.90;;;20.56;20.82
77897;BME280;67092;64.282;21.056;2023-02-25T05:30:09;99988.16;;;20.97;20.53
77897;BME280;67092;64.282;21.056;2023-02-25T05:32:33;99984.41;;;20.69;20.77
77897;BME280;67092;64.282;21.056;2023-02-25T05:34:59;99983.28;;;20.91;20.57
77897;BME280;67092;64.282;21.056;2023-02-25T05:37:25;99986.08;;;20.65;20.63
77897;BME280;67092;64.282;21.056;2023-02-25T05:39:50;99992.80;;;20.76;20.62
77897;BME280;67092;64.282;21.056;2023-02-25T05:42:16;99999.19;;;21.06;20.34
77897;BME280;67092;64.282;21.056;2023-02-25T05:44:42;99999.09;;;20.99;20.35
77897;BME280;67092;64.282;21.056;2023-02-25T05:47:07;100004.25;;;20.94;20.11
77897;BME280;67092;64.282;21.056;2023-02-25T05:49:33;100013.80;;;21.07;20.29
77897;BME280;67092;64.282;21.056;2023-02-25T05:51:59;100018.74;;;20.20;20.80
77897;BME280;67092;64.282;21.056;2023-02-25T05:54:24;100017.91;;;20.83;20.49
77897;BME280;67092;64.282;21.056;2023-02-25T05:56:50;100018.81;;;20.72;20.38
77897;BME280;67092;64.282;21.056;2023-02-25T05:59:15;100023.92;;;20.28;20.81
77897;BME280;67092;64.282;21.056;2023-02-25T06:01:41;100023.95;;;20.95;20.43
77897;BME280;67092;64.282;21.056;2023-02-25T06:04:07;100027.35;;;20.35;20.74
77897;BME280;67092;64.282;21.056;2023-02-25T06:06:32;100028.15;;;20.45;21.02
77897;BME280;67092;64.282;21.056;2023-02-25T06:08:58;100028.39;;;21.05;20.43
77897;BME280;67092;64.282;21.056;2023-02-25T06:11:27;100031.83;;;20.57;20.66
77897;BME280;67092;64.282;21.056;2023-02-25T06:13:50;100035.04;;;20.50;20.74
77897;BME280;67092;64.282;21.056;2023-02-25T06:16:15;100036.31;;;20.32;20.72
77897;BME280;67092;64.282;21.056;2023-02-25T06:18:41;100033.70;;;21.07;20.31
77897;BME280;67092;64.282;21.056;2023-02-25T06:21:08;100040.81;;;20.14;20.73
77897;BME280;67092;64.282;21.056;2023-02-25T06:23:32;100045.79;;;20.56;20.68
77897;BME280;67092;64.282;21.056;2023-02-25T06:25:58;100048.02;;;20.16;20.82
77897;BME280;67092;64.282;21.056;2023-02-25T06:28:23;100049.35;;;20.97;20.37
77897;BME280;67092;64.282;21.056;2023-02-25T06:30:49;100052.05;;;20.28;20.64
77897;BME280;67092;64.282;21.056;2023-02-25T06:33:15;100053.04;;;20.74;20.36
77897;BME280;67092;64.282;21.056;2023-02-25T06:35:40;100057.44;;;20.52;20.55
77897;BME280;67092;64.282;21.056;2023-02-25T06:38:06;100061.58;;;20.77;20.43
77897;BME280;67092;64.282;21.056;2023-02-25T06:40:31;100061.39;;;20.66;20.49
77897;BME280;67092;64.282;21.056;2023-02-25T06:42:57;100063.77;;;20.83;20.45
77897;BME280;67092;64.282;21.056;2023-02-25T06:45:23;100065.51;;;20.64;20.36
77897;BME280;67092;64.282;21.056;2023-02-25T06:47:48;100063.80;;;20.28;20.76
77897;BME280;67092;64.282;21.056;2023-02-25T06:50:14;100069.77;;;20.46;20.54
77897;BME280;67092;64.282;21.056;2023-02-25T06:52:40;100074.80;;;20.59;20.30
77897;BME280;67092;64.282;21.056;2023-02-25T06:55:06;100071.13;;;21.01;20.12
77897;BME280;67092;64.282;21.056;2023-02-25T06:57:31;100074.51;;;20.62;20.26
77897;BME280;67092;64.282;21.056;2023-02-25T06:59:56;100073.59;;;21.14;20.10
77897;BME280;67092;64.282;21.056;2023-02-25T07:02:22;100078.76;;;20.73;20.22
77897;BME280;67092;64.282;21.056;2023-02-25T07:04:48;100081.13;;;20.77;20.34
77897;BME280;67092;64.282;21.056;2023-02-25T07:07:14;100084.89;;;20.58;20.47
77897;BME280;67092;64.282;21.056;2023-02-25T07:09:39;100092.19;;;21.27;20.05
77897;BME280;67092;64.282;21.056;2023-02-25T07:12:05;100095.94;;;20.61;20.36
77897;BME280;67092;64.282;21.056;2023-02-25T07:14:30;100097.96;;;21.39;19.94
77897;BME280;67092;64.282;21.056;2023-02-25T07:16:56;100095.79;;;20.25;20.53
77897;BME280;67092;64.282;21.056;2023-02-25T07:19:22;100102.32;;;20.45;20.63
77897;BME280;67092;64.282;21.056;2023-02-25T07:21:47;100104.91;;;20.99;20.28
77897;BME280;67092;64.282;21.056;2023-02-25T07:24:13;100103.82;;;20.66;20.51
77897;BME280;67092;64.282;21.056;2023-02-25T07:26:39;100103.67;;;21.07;20.10
77897;BME280;67092;64.282;21.056;2023-02-25T07:29:05;100101.07;;;20.49;20.43
77897;BME280;67092;64.282;21.056;2023-02-25T07:31:30;100104.17;;;20.50;20.37
77897;BME280;67092;64.282;21.056;2023-02-25T07:33:57;100106.08;;;20.14;20.64
77897;BME280;67092;64.282;21.056;2023-02-25T07:36:22;100109.95;;;21.13;20.16
77897;BME280;67092;64.282;21.056;2023-02-25T07:38:47;100100.59;;;20.47;20.49
77897;BME280;67092;64.282;21.056;2023-02-25T07:41:15;100103.24;;;20.35;20.52
77897;BME280;67092;64.282;21.056;2023-02-25T07:43:38;100114.98;;;20.58;20.33
77897;BME280;67092;64.282;21.056;2023-02-25T07:46:04;100121.50;;;20.76;20.44
77897;BME280;67092;64.282;21.056;2023-02-25T07:48:29;100123.98;;;20.77;20.41
77897;BME280;67092;64.282;21.056;2023-02-25T07:50:55;100134.79;;;21.17;20.09
77897;BME280;67092;64.282;21.056;2023-02-25T07:53:21;100136.74;;;20.65;20.23
77897;BME280;67092;64.282;21.056;2023-02-25T07:55:46;100136.33;;;20.65;20.33
77897;BME280;67092;64.282;21.056;2023-02-25T07:58:11;100137.53;;;19.96;20.76
77897;BME280;67092;64.282;21.056;2023-02-25T08:00:37;100143.76;;;21.23;19.98
77897;BME280;67092;64.282;21.056;2023-02-25T08:03:03;100141.26;;;21.44;19.74
77897;BME280;67092;64.282;21.056;2023-02-25T08:05:28;100144.35;;;20.80;20.18
77897;BME280;67092;64.282;21.056;2023-02-25T08:07:54;100148.17;;;21.06;20.09
77897;BME280;67092;64.282;21.056;2023-02-25T08:10:19;100148.43;;;20.91;20.21
77897;BME280;67092;64.282;21.056;2023-02-25T08:12:45;100151.35;;;20.44;20.52
77897;BME280;67092;64.282;21.056;2023-02-25T08:15:11;100149.07;;;21.18;20.09
77897;BME280;67092;64.282;21.056;2023-02-25T08:17:42;100157.84;;;20.88;20.25
77897;BME280;67092;64.282;21.056;2023-02-25T08:20:02;100165.01;;;21.36;19.89
77897;BME280;67092;64.282;21.056;2023-02-25T08:22:28;100163.32;;;21.19;20.18
77897;BME280;67092;64.282;21.056;2023-02-25T08:24:53;100166.33;;;20.95;20.35
77897;BME280;67092;64.282;21.056;2023-02-25T08:27:19;100174.48;;;20.58;20.50
77897;BME280;67092;64.282;21.056;2023-02-25T08:29:49;100176.70;;;20.89;20.44
77897;BME280;67092;64.282;21.056;2023-02-25T08:32:10;100177.57;;;20.71;20.56
77897;BME280;67092;64.282;21.056;2023-02-25T08:34:36;100173.92;;;21.29;20.05
77897;BME280;67092;64.282;21.056;2023-02-25T08:37:02;100176.15;;;20.89;20.18
77897;BME280;67092;64.282;21.056;2023-02-25T08:39:27;100174.70;;;20.85;20.16
77897;BME280;67092;64.282;21.056;2023-02-25T08:41:53;100175.36;;;20.42;20.56
77897;BME280;67092;64.282;21.056;2023-02-25T08:44:18;100184.20;;;20.35;20.95
77897;BME280;67092;64.282;21.056;2023-02-25T08:46:44;100188.79;;;20.33;20.80
77897;BME280;67092;64.282;21.056;2023-02-25T08:49:09;100189.59;;;21.06;20.67
77897;BME280;67092;64.282;21.056;2023-02-25T08:51:35;100194.58;;;21.28;20.38
77897;BME280;67092;64.282;21.056;2023-02-25T08:54:03;100196.47;;;21.17;20.70
77897;BME280;67092;64.282;21.056;2023-02-25T08:56:27;100197.44;;;21.48;20.34
77897;BME280;67092;64.282;21.056;2023-02-25T08:58:53;100198.02;;;21.41;20.22
77897;BME280;67092;64.282;21.056;2023-02-25T09:01:17;100202.98;;;21.39;20.15
77897;BME280;67092;64.282;21.056;2023-02-25T09:03:45;100199.49;;;21.25;20.48
77897;BME280;67092;64.282;21.056;2023-02-25T09:06:09;100199.39;;;21.20;20.21
77897;BME280;67092;64.282;21.056;2023-02-25T09:08:34;100203.25;;;21.03;20.67
77897;BME280;67092;64.282;21.056;2023-02-25T09:11:04;100207.72;;;20.51;20.68
77897;BME280;67092;64.282;21.056;2023-02-25T09:13:26;100208.01;;;20.46;20.51
77897;BME280;67092;64.282;21.056;2023-02-25T09:15:55;100214.60;;;20.84;20.59
77897;BME280;67092;64.282;21.056;2023-02-25T09:18:17;100216.87;;;20.39;20.78
77897;BME280;67092;64.282;21.056;2023-02-25T09:20:42;100218.63;;;21.44;20.16
77897;BME280;67092;64.282;21.056;2023-02-25T09:23:08;100221.60;;;20.79;20.74
77897;BME280;67092;64.282;21.056;2023-02-25T09:25:34;100221.93;;;21.17;20.42
77897;BME280;67092;64.282;21.056;2023-02-25T09:27:59;100223.98;;;20.43;20.71
77897;BME280;67092;64.282;21.056;2023-02-25T09:30:25;100222.93;;;21.32;20.29
77897;BME280;67092;64.282;21.056;2023-02-25T09:32:51;100226.52;;;21.13;20.38
77897;BME280;67092;64.282;21.056;2023-02-25T09:35:16;100228.25;;;21.09;20.37
77897;BME280;67092;64.282;21.056;2023-02-25T09:37:42;100227.63;;;21.14;20.32
77897;BME280;67092;64.282;21.056;2023-02-25T09:40:10;100231.41;;;20.80;20.77
77897;BME280;67092;64.282;21.056;2023-02-25T09:42:43;100230.55;;;21.13;20.50
77897;BME280;67092;64.282;21.056;2023-02-25T09:45:01;100234.01;;;21.23;20.43
77897;BME280;67092;64.282;21.056;2023-02-25T09:47:28;100235.14;;;20.44;20.72
77897;BME280;67092;64.282;21.056;2023-02-25T09:49:55;100239.07;;;21.47;20.43
77897;BME280;67092;64.282;21.056;2023-02-25T09:52:20;100240.35;;;21.44;20.38
77897;BME280;67092;64.282;21.056;2023-02-25T09:54:43;100239.61;;;20.74;20.70
77897;BME280;67092;64.282;21.056;2023-02-25T09:57:12;100241.20;;;20.47;20.88
77897;BME280;67092;64.282;21.056;2023-02-25T09:59:33;100239.53;;;20.37;20.84
77897;BME280;67092;64.282;21.056;2023-02-25T10:02:01;100245.18;;;21.57;20.29
77897;BME280;67092;64.282;21.056;2023-02-25T10:04:30;100246.55;;;20.84;20.18
77897;BME280;67092;64.282;21.056;2023-02-25T10:06:50;100249.61;;;20.61;20.35
77897;BME280;67092;64.282;21.056;2023-02-25T10:09:23;100248.46;;;20.60;20.27
77897;BME280;67092;64.282;21.056;2023-02-25T10:11:48;100253.26;;;20.80;20.17
77897;BME280;67092;64.282;21.056;2023-02-25T10:14:16;100249.80;;;21.06;19.71
77897;BME280;67092;64.282;21.056;2023-02-25T10:16:41;100251.93;;;20.74;19.74
77897;BME280;67092;64.282;21.056;2023-02-25T10:19:04;100254.26;;;21.31;19.45
77897;BME280;67092;64.282;21.056;2023-02-25T10:21:36;100250.80;;;21.24;19.61
77897;BME280;67092;64.282;21.056;2023-02-25T10:24:00;100252.76;;;21.12;19.60
77897;BME280;67092;64.282;21.056;2023-02-25T10:26:17;100252.56;;;20.93;19.92
77897;BME280;67092;64.282;21.056;2023-02-25T10:28:41;100256.94;;;20.95;19.92
77897;BME280;67092;64.282;21.056;2023-02-25T10:31:08;100256.36;;;21.25;19.78
77897;BME280;67092;64.282;21.056;2023-02-25T10:33:36;100258.16;;;20.97;20.15
77897;BME280;67092;64.282;21.056;2023-02-25T10:36:08;100256.80;;;20.65;20.25
77897;BME280;67092;64.282;21.056;2023-02-25T10:38:23;100258.81;;;20.99;20.07
77897;BME280;67092;64.282;21.056;2023-02-25T10:40:49;100260.61;;;21.19;19.96
77897;BME280;67092;64.282;21.056;2023-02-25T10:43:19;100262.70;;;20.97;20.11
77897;BME280;67092;64.282;21.056;2023-02-25T10:45:42;100263.20;;;21.34;19.91
77897;BME280;67092;64.282;21.056;2023-02-25T10:48:12;100265.04;;;21.30;20.12
77897;BME280;67092;64.282;21.056;2023-02-25T10:50:31;100265.42;;;20.62;20.34
77897;BME280;67092;64.282;21.056;2023-02-25T10:52:59;100265.41;;;21.16;20.10
77897;BME280;67092;64.282;21.056;2023-02-25T10:55:28;100267.60;;;21.24;19.83
77897;BME280;67092;64.282;21.056;2023-02-25T10:57:48;100269.88;;;20.88;20.10
77897;BME280;67092;64.282;21.056;2023-02-25T11:00:21;100273.02;;;21.40;19.96
77897;BME280;67092;64.282;21.056;2023-02-25T11:02:41;100273.28;;;21.34;20.17
77897;BME280;67092;64.282;21.056;2023-02-25T11:05:05;100278.17;;;21.33;20.01
77897;BME280;67092;64.282;21.056;2023-02-25T11:07:33;100276.92;;;20.75;20.27
77897;BME280;67092;64.282;21.056;2023-02-25T11:10:07;100279.22;;;20.71;20.35
77897;BME280;67092;64.282;21.056;2023-02-25T11:12:21;100277.77;;;20.55;20.42
77897;BME280;67092;64.282;21.056;2023-02-25T11:14:47;100283.86;;;21.19;19.96
77897;BME280;67092;64.282;21.056;2023-02-25T11:17:15;100282.59;;;21.13;20.07
77897;BME280;67092;64.282;21.056;2023-02-25T11:19:40;100280.53;;;21.40;19.94
77897;BME280;67092;64.282;21.056;2023-02-25T11:22:08;100280.84;;;20.86;19.78
77897;BME280;67092;64.282;21.056;2023-02-25T11:24:31;100279.61;;;20.79;19.81
77897;BME280;67092;64.282;21.056;2023-02-25T11:26:55;100284.61;;;20.08;19.99
77897;BME280;67092;64.282;21.056;2023-02-25T11:29:24;100281.99;;;20.71;19.55
77897;BME280;67092;64.282;21.056;2023-02-25T11:31:50;100281.68;;;20.55;19.48
77897;BME280;67092;64.282;21.056;2023-02-25T11:34:21;100281.73;;;19.85;19.90
77897;BME280;67092;64.282;21.056;2023-02-25T11:36:38;100283.01;;;19.83;19.30
77897;BME280;67092;64.282;21.056;2023-02-25T11:39:10;100284.49;;;20.33;18.86
77897;BME280;67092;64.282;21.056;2023-02-25T11:41:30;100285.91;;;20.14;18.91
77897;BME280;67092;64.282;21.056;2023-02-25T11:43:54;100283.23;;;20.05;18.75
77897;BME280;67092;64.282;21.056;2023-02-25T11:46:22;100287.92;;;20.22;18.52
77897;BME280;67092;64.282;21.056;2023-02-25T11:48:48;100292.31;;;20.14;18.51
77897;BME280;67092;64.282;21.056;2023-02-25T11:51:18;100293.50;;;20.06;18.79
77897;BME280;67092;64.282;21.056;2023-02-25T11:53:46;100298.18;;;19.77;18.85
77897;BME280;67092;64.282;21.056;2023-02-25T11:56:08;100295.25;;;20.15;18.65
77897;BME280;67092;64.282;21.056;2023-02-25T11:58:32;100299.42;;;19.86;18.90
77897;BME280;67092;64.282;21.056;2023-02-25T12:00:59;100303.14;;;19.92;18.72
77897;BME280;67092;64.282;21.056;2023-02-25T12:03:35;100302.92;;;20.27;18.19
77897;BME280;67092;64.282;21.056;2023-02-25T12:05:53;100305.04;;;19.87;18.53
77897;BME280;67092;64.282;21.056;2023-02-25T12:08:26;100306.69;;;19.94;18.62
77897;BME280;67092;64.282;21.056;2023-02-25T12:13:24;100316.16;;;19.87;18.88
77897;BME280;67092;64.282;21.056;2023-02-25T12:20:30;100318.51;;;20.57;18.38
77897;BME280;67092;64.282;21.056;2023-02-25T12:23:01;100318.19;;;20.20;18.87
77897;BME280;67092;64.282;21.056;2023-02-25T12:25:19;100323.53;;;20.32;18.73
77897;BME280;67092;64.282;21.056;2023-02-25T12:27:49;100327.13;;;20.49;18.94
77897;BME280;67092;64.282;21.056;2023-02-25T12:32:40;100327.73;;;20.49;18.82
77897;BME280;67092;64.282;21.056;2023-02-25T12:35:07;100333.09;;;20.22;19.03
77897;BME280;67092;64.282;21.056;2023-02-25T12:37:30;100338.19;;;21.02;18.75
77897;BME280;67092;64.282;21.056;2023-02-25T12:39:52;100341.12;;;20.55;18.92
77897;BME280;67092;64.282;21.056;2023-02-25T12:42:22;100342.01;;;20.71;18.69
77897;BME280;67092;64.282;21.056;2023-02-25T12:44:50;100345.08;;;20.52;18.88
77897;BME280;67092;64.282;21.056;2023-02-25T12:47:16;100344.59;;;20.48;19.01